sensor_id;sensor_type;location;lat;lon;timestamp;pressure;altitude;pressure_sealevel;temperature;humidity
71476;BME280;59286;59.274;17.974;2023-07-29T00:01:51;99902.44;;;12.37;100.00
71476;BME280;59286;59.274;17.974;2023-07-29T00:04:17;99889.63;;;12.36;100.00
71476;BME280;59286;59.274;17.974;2023-07-29T00:06:42;99887.94;;;12.31;100.00
71476;BME280;59286;59.274;17.974;2023-07-29T00:09:07;99888.28;;;12.30;100.00
71476;BME280;59286;59.274;17.974;2023-07-29T00:11:33;99888.06;;;12.35;100.00
71476;BME280;59286;59.274;17.974;2023-07-29T00:14:00;99876.41;;;12.24;100.00
71476;BME280;59286;59.274;17.974;2023-07-29T00:16:25;99902.09;;;12.39;100.00
71476;BME280;59286;59.274;17.974;2023-07-29T00:18:51;99901.41;;;12.30;100.00
71476;BME280;59286;59.274;17.974;2023-07-29T00:21:16;99900.06;;;12.24;100.00
71476;BME280;59286;59.274;17.974;2023-07-29T00:23:41;99894.19;;;12.27;100.00
71476;BME280;59286;59.274;17.974;2023-07-29T00:26:07;99891.72;;;12.22;100.00
71476;BME280;59286;59.274;17.974;2023-07-29T00:28:32;99887.25;;;12.22;100.00
71476;BME280;59286;59.274;17.974;2023-07-29T00:30:57;99868.03;;;12.10;100.00
71476;BME280;59286;59.274;17.974;2023-07-29T00:33:23;99888.53;;;12.16;100.00
71476;BME280;59286;59.274;17.974;2023-07-29T00:35:48;99877.56;;;12.14;100.00
71476;BME280;59286;59.274;17.974;2023-07-29T00:38:14;99885.72;;;12.21;100.00
71476;BME280;59286;59.274;17.974;2023-07-29T00:40:39;99888.94;;;12.27;100.00
71476;BME280;59286;59.274;17.974;2023-07-29T00:43:04;99885.19;;;12.28;100.00
71476;BME280;59286;59.274;17.974;2023-07-29T00:45:31;99875.47;;;12.28;100.00
71476;BME280;59286;59.274;17.974;2023-07-29T00:47:57;99865.56;;;12.25;100.00
71476;BME280;59286;59.274;17.974;2023-07-29T00:50:23;99853.63;;;12.16;100.00
71476;BME280;59286;59.274;17.974;2023-07-29T00:52:49;99842.22;;;12.12;100.00
71476;BME280;59286;59.274;17.974;2023-07-29T00:55:15;99826.41;;;12.00;100.00
71476;BME280;59286;59.274;17.974;2023-07-29T00:57:41;99864.50;;;12.26;100.00
71476;BME280;59286;59.274;17.974;2023-07-29T01:00:08;99880.38;;;12.30;100.00
71476;BME280;59286;59.274;17.974;2023-07-29T01:02:34;99856.38;;;12.19;100.00
71476;BME280;59286;59.274;17.974;2023-07-29T01:05:00;99880.25;;;12.26;100.00
71476;BME280;59286;59.274;17.974;2023-07-29T01:07:33;99860.16;;;12.10;100.00
71476;BME280;59286;59.274;17.974;2023-07-29T01:10:18;99843.44;;;11.94;100.00
71476;BME280;59286;59.274;17.974;2023-07-29T01:12:49;99851.13;;;11.99;100.00
71476;BME280;59286;59.274;17.974;2023-07-29T01:15:17;99872.06;;;12.07;100.00
71476;BME280;59286;59.274;17.974;2023-07-29T01:17:49;99866.91;;;11.99;100.00
71476;BME280;59286;59.274;17.974;2023-07-29T01:20:19;99857.91;;;12.00;100.00
71476;BME280;59286;59.274;17.974;2023-07-29T01:22:45;99860.34;;;12.05;100.00
71476;BME280;59286;59.274;17.974;2023-07-29T01:25:12;99849.41;;;12.03;100.00
71476;BME280;59286;59.274;17.974;2023-07-29T01:27:38;99849.72;;;12.01;100.00
71476;BME280;59286;59.274;17.974;2023-07-29T01:30:04;99826.66;;;11.86;100.00
71476;BME280;59286;59.274;17.974;2023-07-29T01:32:39;99853.75;;;11.99;100.00
71476;BME280;59286;59.274;17.974;2023-07-29T01:35:16;99839.59;;;11.91;100.00
71476;BME280;59286;59.274;17.974;2023-07-29T01:37:44;99854.25;;;11.92;100.00
71476;BME280;59286;59.274;17.974;2023-07-29T01:40:12;99854.25;;;11.92;100.00
71476;BME280;59286;59.274;17.974;2023-07-29T01:42:38;99842.28;;;11.83;100.00
71476;BME280;59286;59.274;17.974;2023-07-29T01:45:03;99859.50;;;11.92;100.00
71476;BME280;59286;59.274;17.974;2023-07-29T01:47:30;99841.09;;;11.80;100.00
71476;BME280;59286;59.274;17.974;2023-07-29T01:49:55;99860.94;;;11.90;100.00
71476;BME280;59286;59.274;17.974;2023-07-29T01:52:21;99845.22;;;11.81;100.00
71476;BME280;59286;59.274;17.974;2023-07-29T01:54:46;99839.19;;;11.81;100.00
71476;BME280;59286;59.274;17.974;2023-07-29T01:57:11;99852.03;;;11.82;100.00
71476;BME280;59286;59.274;17.974;2023-07-29T01:59:37;99845.09;;;11.78;100.00
71476;BME280;59286;59.274;17.974;2023-07-29T02:02:02;99824.84;;;11.57;100.00
71476;BME280;59286;59.274;17.974;2023-07-29T02:04:28;99839.16;;;11.68;100.00
71476;BME280;59286;59.274;17.974;2023-07-29T02:06:53;99848.56;;;11.69;100.00
71476;BME280;59286;59.274;17.974;2023-07-29T02:09:18;99828.53;;;11.56;100.00
71476;BME280;59286;59.274;17.974;2023-07-29T02:11:44;99856.09;;;11.71;100.00
71476;BME280;59286;59.274;17.974;2023-07-29T02:14:09;99848.25;;;11.62;100.00
71476;BME280;59286;59.274;17.974;2023-07-29T02:16:34;99814.91;;;11.42;100.00
71476;BME280;59286;59.274;17.974;2023-07-29T02:19:00;99815.84;;;11.38;100.00
71476;BME280;59286;59.274;17.974;2023-07-29T02:21:25;99841.03;;;11.59;100.00
71476;BME280;59286;59.274;17.974;2023-07-29T02:23:50;99846.75;;;11.61;100.00
71476;BME280;59286;59.274;17.974;2023-07-29T02:26:16;99846.75;;;11.61;100.00
71476;BME280;59286;59.274;17.974;2023-07-29T02:28:42;99846.59;;;11.58;100.00
71476;BME280;59286;59.274;17.974;2023-07-29T02:31:24;99851.66;;;11.63;100.00
71476;BME280;59286;59.274;17.974;2023-07-29T02:33:50;99848.25;;;11.62;100.00
71476;BME280;59286;59.274;17.974;2023-07-29T02:36:16;99838.75;;;11.58;100.00
71476;BME280;59286;59.274;17.974;2023-07-29T02:38:42;99853.19;;;11.64;100.00
71476;BME280;59286;59.274;17.974;2023-07-29T02:41:08;99848.25;;;11.62;100.00
71476;BME280;59286;59.274;17.974;2023-07-29T02:43:35;99828.53;;;11.56;100.00
71476;BME280;59286;59.274;17.974;2023-07-29T02:46:01;99821.63;;;11.52;100.00
71476;BME280;59286;59.274;17.974;2023-07-29T02:48:27;99856.88;;;11.72;100.00
71476;BME280;59286;59.274;17.974;2023-07-29T02:50:53;99849.31;;;11.70;100.00
71476;BME280;59286;59.274;17.974;2023-07-29T02:53:18;99843.31;;;11.69;100.00
71476;BME280;59286;59.274;17.974;2023-07-29T02:55:44;99844.53;;;11.72;100.00
71476;BME280;59286;59.274;17.974;2023-07-29T02:58:09;99844.84;;;11.71;100.00
71476;BME280;59286;59.274;17.974;2023-07-29T03:00:35;99846.81;;;11.74;100.00
71476;BME280;59286;59.274;17.974;2023-07-29T03:03:00;99818.50;;;11.58;100.00
71476;BME280;59286;59.274;17.974;2023-07-29T03:05:29;99848.84;;;11.77;100.00
71476;BME280;59286;59.274;17.974;2023-07-29T03:07:54;99842.28;;;11.83;100.00
71476;BME280;59286;59.274;17.974;2023-07-29T03:10:19;99822.56;;;11.77;100.00
71476;BME280;59286;59.274;17.974;2023-07-29T03:12:46;99836.66;;;11.93;100.00
71476;BME280;59286;59.274;17.974;2023-07-29T03:15:11;99829.34;;;11.98;100.00
71476;BME280;59286;59.274;17.974;2023-07-29T03:17:37;99839.31;;;12.05;100.00
71476;BME280;59286;59.274;17.974;2023-07-29T03:20:03;99834.84;;;12.05;100.00
71476;BME280;59286;59.274;17.974;2023-07-29T03:22:28;99827.94;;;12.01;100.00
71476;BME280;59286;59.274;17.974;2023-07-29T03:24:53;99818.50;;;12.00;100.00
71476;BME280;59286;59.274;17.974;2023-07-29T03:27:19;99843.75;;;12.13;100.00
71476;BME280;59286;59.274;17.974;2023-07-29T03:29:44;99842.91;;;12.21;100.00
71476;BME280;59286;59.274;17.974;2023-07-29T03:32:11;99835.47;;;12.23;100.00
71476;BME280;59286;59.274;17.974;2023-07-29T03:34:36;99841.75;;;12.30;100.00
71476;BME280;59286;59.274;17.974;2023-07-29T03:37:01;99832.44;;;12.33;100.00
71476;BME280;59286;59.274;17.974;2023-07-29T03:39:27;99841.25;;;12.49;100.00
71476;BME280;59286;59.274;17.974;2023-07-29T03:41:52;99844.91;;;12.56;100.00
71476;BME280;59286;59.274;17.974;2023-07-29T03:44:19;99854.97;;;12.66;100.00
71476;BME280;59286;59.274;17.974;2023-07-29T03:46:44;99833.06;;;12.62;100.00
71476;BME280;59286;59.274;17.974;2023-07-29T03:49:10;99841.97;;;12.82;100.00
71476;BME280;59286;59.274;17.974;2023-07-29T03:51:35;99841.41;;;12.89;100.00
71476;BME280;59286;59.274;17.974;2023-07-29T03:54:01;99850.13;;;13.01;100.00
71476;BME280;59286;59.274;17.974;2023-07-29T03:56:26;99827.53;;;12.88;100.00
71476;BME280;59286;59.274;17.974;2023-07-29T03:58:52;99852.56;;;13.06;100.00
71476;BME280;59286;59.274;17.974;2023-07-29T04:01:18;99828.81;;;12.94;100.00
71476;BME280;59286;59.274;17.974;2023-07-29T04:03:45;99851.91;;;13.21;100.00
71476;BME280;59286;59.274;17.974;2023-07-29T04:06:11;99844.00;;;13.21;100.00
71476;BME280;59286;59.274;17.974;2023-07-29T04:08:36;99834.25;;;13.22;100.00
71476;BME280;59286;59.274;17.974;2023-07-29T04:11:01;99852.75;;;13.37;100.00
71476;BME280;59286;59.274;17.974;2023-07-29T04:13:27;99840.91;;;13.43;100.00
71476;BME280;59286;59.274;17.974;2023-07-29T04:15:52;99830.59;;;13.50;100.00
71476;BME280;59286;59.274;17.974;2023-07-29T04:18:17;99843.94;;;13.70;100.00
71476;BME280;59286;59.274;17.974;2023-07-29T04:20:43;99849.75;;;13.87;100.00
71476;BME280;59286;59.274;17.974;2023-07-29T04:23:08;99849.84;;;13.91;100.00
71476;BME280;59286;59.274;17.974;2023-07-29T04:25:34;99841.69;;;13.96;100.00
71476;BME280;59286;59.274;17.974;2023-07-29T04:27:59;99848.09;;;14.10;100.00
71476;BME280;59286;59.274;17.974;2023-07-29T04:30:24;99847.72;;;14.24;100.00
71476;BME280;59286;59.274;17.974;2023-07-29T04:32:50;99837.84;;;14.33;100.00
71476;BME280;59286;59.274;17.974;2023-07-29T04:35:15;99848.13;;;14.38;100.00
71476;BME280;59286;59.274;17.974;2023-07-29T04:37:40;99843.81;;;14.45;100.00
71476;BME280;59286;59.274;17.974;2023-07-29T04:40:06;99829.00;;;14.41;100.00
71476;BME280;59286;59.274;17.974;2023-07-29T04:42:32;99848.44;;;14.64;100.00
71476;BME280;59286;59.274;17.974;2023-07-29T04:44:57;99835.50;;;14.59;100.00
71476;BME280;59286;59.274;17.974;2023-07-29T04:47:23;99846.25;;;14.82;100.00
71476;BME280;59286;59.274;17.974;2023-07-29T04:49:48;99851.19;;;14.99;100.00
71476;BME280;59286;59.274;17.974;2023-07-29T04:52:14;99856.00;;;15.12;99.83
71476;BME280;59286;59.274;17.974;2023-07-29T04:54:40;99841.88;;;15.20;100.00
71476;BME280;59286;59.274;17.974;2023-07-29T04:57:05;99833.59;;;15.22;98.20
71476;BME280;59286;59.274;17.974;2023-07-29T04:59:31;99856.88;;;15.47;98.27
71476;BME280;59286;59.274;17.974;2023-07-29T05:01:56;99854.09;;;15.60;98.10
71476;BME280;59286;59.274;17.974;2023-07-29T05:04:21;99819.53;;;15.49;96.17
71476;BME280;59286;59.274;17.974;2023-07-29T05:06:48;99850.84;;;15.85;96.55
71476;BME280;59286;59.274;17.974;2023-07-29T05:09:17;99852.59;;;15.97;96.39
71476;BME280;59286;59.274;17.974;2023-07-29T05:11:44;99860.13;;;16.14;95.88
71476;BME280;59286;59.274;17.974;2023-07-29T05:14:16;99856.63;;;16.29;95.43
71476;BME280;59286;59.274;17.974;2023-07-29T05:16:42;99849.66;;;16.40;94.45
71476;BME280;59286;59.274;17.974;2023-07-29T05:19:08;99863.47;;;16.49;93.07
71476;BME280;59286;59.274;17.974;2023-07-29T05:21:33;99857.66;;;16.63;92.09
71476;BME280;59286;59.274;17.974;2023-07-29T05:23:59;99863.84;;;16.70;91.97
71476;BME280;59286;59.274;17.974;2023-07-29T05:26:24;99858.72;;;16.81;91.09
71476;BME280;59286;59.274;17.974;2023-07-29T05:28:50;99865.00;;;16.95;90.52
71476;BME280;59286;59.274;17.974;2023-07-29T05:31:15;99867.47;;;17.07;90.14
71476;BME280;59286;59.274;17.974;2023-07-29T05:33:41;99843.75;;;17.14;89.08
71476;BME280;59286;59.274;17.974;2023-07-29T05:36:06;99863.03;;;17.37;89.02
71476;BME280;59286;59.274;17.974;2023-07-29T05:38:31;99860.56;;;17.48;88.42
71476;BME280;59286;59.274;17.974;2023-07-29T05:40:57;99864.03;;;17.52;87.40
71476;BME280;59286;59.274;17.974;2023-07-29T05:43:24;99872.84;;;17.60;86.31
71476;BME280;59286;59.274;17.974;2023-07-29T05:45:49;99852.50;;;17.67;85.69
71476;BME280;59286;59.274;17.974;2023-07-29T05:48:15;99855.00;;;17.86;85.01
71476;BME280;59286;59.274;17.974;2023-07-29T05:50:41;99864.13;;;17.89;84.97
71476;BME280;59286;59.274;17.974;2023-07-29T05:53:06;99868.09;;;18.05;84.10
71476;BME280;59286;59.274;17.974;2023-07-29T05:55:31;99868.66;;;18.18;83.82
71476;BME280;59286;59.274;17.974;2023-07-29T05:57:57;99863.09;;;18.30;82.52
71476;BME280;59286;59.274;17.974;2023-07-29T06:00:23;99870.88;;;18.46;82.89
71476;BME280;59286;59.274;17.974;2023-07-29T06:02:48;99860.69;;;18.51;82.75
71476;BME280;59286;59.274;17.974;2023-07-29T06:05:13;99857.25;;;18.51;81.36
71476;BME280;59286;59.274;17.974;2023-07-29T06:07:39;99863.16;;;18.70;80.29
71476;BME280;59286;59.274;17.974;2023-07-29T06:10:09;99849.53;;;18.75;80.19
71476;BME280;59286;59.274;17.974;2023-07-29T06:12:37;99851.59;;;18.96;80.39
71476;BME280;59286;59.274;17.974;2023-07-29T06:15:02;99876.03;;;19.15;78.74
71476;BME280;59286;59.274;17.974;2023-07-29T06:17:28;99880.75;;;19.33;78.71
71476;BME280;59286;59.274;17.974;2023-07-29T06:19:53;99855.66;;;19.30;78.54
71476;BME280;59286;59.274;17.974;2023-07-29T06:22:18;99880.78;;;19.40;77.27
71476;BME280;59286;59.274;17.974;2023-07-29T06:24:44;99873.28;;;19.49;76.96
71476;BME280;59286;59.274;17.974;2023-07-29T06:27:09;99887.00;;;19.58;75.95
71476;BME280;59286;59.274;17.974;2023-07-29T06:29:34;99882.47;;;19.62;76.93
71476;BME280;59286;59.274;17.974;2023-07-29T06:32:00;99873.41;;;19.77;75.72
71476;BME280;59286;59.274;17.974;2023-07-29T06:34:25;99857.09;;;19.78;76.12
71476;BME280;59286;59.274;17.974;2023-07-29T06:36:51;99852.88;;;19.74;74.24
71476;BME280;59286;59.274;17.974;2023-07-29T06:39:16;99870.47;;;19.99;75.70
71476;BME280;59286;59.274;17.974;2023-07-29T06:41:41;99866.34;;;20.16;75.56
71476;BME280;59286;59.274;17.974;2023-07-29T06:44:07;99854.56;;;20.17;74.86
71476;BME280;59286;59.274;17.974;2023-07-29T06:46:32;99869.50;;;20.53;71.90
71476;BME280;59286;59.274;17.974;2023-07-29T06:48:57;99881.69;;;20.54;73.09
71476;BME280;59286;59.274;17.974;2023-07-29T06:51:23;99852.00;;;20.42;74.43
71476;BME280;59286;59.274;17.974;2023-07-29T06:53:48;99879.81;;;20.58;74.88
71476;BME280;59286;59.274;17.974;2023-07-29T06:56:13;99876.75;;;20.60;72.94
71476;BME280;59286;59.274;17.974;2023-07-29T06:58:39;99877.53;;;20.67;72.78
71476;BME280;59286;59.274;17.974;2023-07-29T07:01:04;99884.00;;;20.80;71.64
71476;BME280;59286;59.274;17.974;2023-07-29T07:03:29;99869.94;;;20.76;73.08
71476;BME280;59286;59.274;17.974;2023-07-29T07:05:55;99872.59;;;20.94;70.97
71476;BME280;59286;59.274;17.974;2023-07-29T07:08:20;99857.00;;;20.85;70.47
71476;BME280;59286;59.274;17.974;2023-07-29T07:10:47;99875.28;;;21.04;70.95
71476;BME280;59286;59.274;17.974;2023-07-29T07:13:12;99870.34;;;21.10;71.49
71476;BME280;59286;59.274;17.974;2023-07-29T07:15:38;99876.06;;;21.08;70.04
71476;BME280;59286;59.274;17.974;2023-07-29T07:18:03;99877.59;;;21.20;69.95
71476;BME280;59286;59.274;17.974;2023-07-29T07:20:28;99889.00;;;21.28;69.15
71476;BME280;59286;59.274;17.974;2023-07-29T07:22:54;99883.63;;;21.45;67.71
71476;BME280;59286;59.274;17.974;2023-07-29T07:25:19;99885.91;;;21.57;67.50
71476;BME280;59286;59.274;17.974;2023-07-29T07:27:44;99863.78;;;21.57;67.93
71476;BME280;59286;59.274;17.974;2023-07-29T07:30:10;99893.09;;;21.85;70.46
71476;BME280;59286;59.274;17.974;2023-07-29T07:32:36;99890.44;;;21.78;66.58
71476;BME280;59286;59.274;17.974;2023-07-29T07:35:01;99871.81;;;21.57;68.05
71476;BME280;59286;59.274;17.974;2023-07-29T07:37:27;99882.44;;;21.64;66.28
71476;BME280;59286;59.274;17.974;2023-07-29T07:39:55;99874.41;;;21.85;68.62
71476;BME280;59286;59.274;17.974;2023-07-29T07:42:20;99880.81;;;22.05;68.10
71476;BME280;59286;59.274;17.974;2023-07-29T07:44:46;99879.56;;;22.24;64.54
71476;BME280;59286;59.274;17.974;2023-07-29T07:47:11;99880.28;;;22.35;65.46
71476;BME280;59286;59.274;17.974;2023-07-29T07:49:36;99862.41;;;22.21;65.99
71476;BME280;59286;59.274;17.974;2023-07-29T07:52:02;99873.44;;;22.34;65.50
71476;BME280;59286;59.274;17.974;2023-07-29T07:54:27;99872.56;;;22.47;66.84
71476;BME280;59286;59.274;17.974;2023-07-29T07:56:52;99854.38;;;22.32;64.96
71476;BME280;59286;59.274;17.974;2023-07-29T07:59:18;99873.41;;;22.37;65.79
71476;BME280;59286;59.274;17.974;2023-07-29T08:01:43;99870.72;;;22.41;65.75
71476;BME280;59286;59.274;17.974;2023-07-29T08:04:08;99861.16;;;22.47;65.01
71476;BME280;59286;59.274;17.974;2023-07-29T08:06:34;99879.78;;;22.54;63.78
71476;BME280;59286;59.274;17.974;2023-07-29T08:09:00;99876.72;;;22.59;62.64
71476;BME280;59286;59.274;17.974;2023-07-29T08:11:25;99876.75;;;22.52;64.38
71476;BME280;59286;59.274;17.974;2023-07-29T08:13:51;99880.94;;;22.60;63.17
71476;BME280;59286;59.274;17.974;2023-07-29T08:16:17;99877.06;;;22.64;62.42
71476;BME280;59286;59.274;17.974;2023-07-29T08:18:42;99842.78;;;22.52;63.97
71476;BME280;59286;59.274;17.974;2023-07-29T08:21:07;99878.06;;;22.88;64.41
71476;BME280;59286;59.274;17.974;2023-07-29T08:23:34;99853.66;;;22.82;63.46
71476;BME280;59286;59.274;17.974;2023-07-29T08:26:03;99881.81;;;22.94;63.41
71476;BME280;59286;59.274;17.974;2023-07-29T08:28:34;99857.13;;;22.79;62.19
71476;BME280;59286;59.274;17.974;2023-07-29T08:31:00;99882.22;;;22.92;60.45
71476;BME280;59286;59.274;17.974;2023-07-29T08:33:26;99868.41;;;22.97;62.29
71476;BME280;59286;59.274;17.974;2023-07-29T08:35:52;99874.84;;;23.07;60.98
71476;BME280;59286;59.274;17.974;2023-07-29T08:38:18;99871.09;;;23.01;60.44
71476;BME280;59286;59.274;17.974;2023-07-29T08:40:54;99868.03;;;22.99;61.88
71476;BME280;59286;59.274;17.974;2023-07-29T08:43:25;99861.88;;;23.05;61.25
71476;BME280;59286;59.274;17.974;2023-07-29T08:45:54;99861.38;;;23.18;62.21
71476;BME280;59286;59.274;17.974;2023-07-29T08:48:23;99868.97;;;23.23;59.87
71476;BME280;59286;59.274;17.974;2023-07-29T08:50:54;99865.19;;;23.17;62.60
71476;BME280;59286;59.274;17.974;2023-07-29T08:53:21;99863.59;;;23.26;60.24
71476;BME280;59286;59.274;17.974;2023-07-29T08:55:47;99865.91;;;23.24;58.38
71476;BME280;59286;59.274;17.974;2023-07-29T08:58:13;99869.25;;;23.35;57.83
71476;BME280;59286;59.274;17.974;2023-07-29T09:00:39;99858.91;;;23.37;58.02
71476;BME280;59286;59.274;17.974;2023-07-29T09:03:05;99860.50;;;23.28;59.11
71476;BME280;59286;59.274;17.974;2023-07-29T09:05:33;99867.31;;;23.39;59.67
71476;BME280;59286;59.274;17.974;2023-07-29T09:08:02;99872.09;;;23.18;58.08
71476;BME280;59286;59.274;17.974;2023-07-29T09:10:28;99872.81;;;23.18;58.84
71476;BME280;59286;59.274;17.974;2023-07-29T09:12:53;99882.53;;;23.46;57.87
71476;BME280;59286;59.274;17.974;2023-07-29T09:15:29;99870.00;;;23.73;59.70
71476;BME280;59286;59.274;17.974;2023-07-29T09:17:56;99871.56;;;23.70;58.95
71476;BME280;59286;59.274;17.974;2023-07-29T09:20:26;99874.72;;;23.62;54.72
71476;BME280;59286;59.274;17.974;2023-07-29T09:22:54;99862.81;;;23.33;52.61
71476;BME280;59286;59.274;17.974;2023-07-29T09:25:29;99859.69;;;23.38;57.35
71476;BME280;59286;59.274;17.974;2023-07-29T09:30:53;99843.28;;;23.36;54.45
71476;BME280;59286;59.274;17.974;2023-07-29T09:33:19;99836.88;;;23.23;55.44
71476;BME280;59286;59.274;17.974;2023-07-29T09:35:47;99853.69;;;23.23;54.39
71476;BME280;59286;59.274;17.974;2023-07-29T09:38:14;99864.00;;;23.25;52.18
71476;BME280;59286;59.274;17.974;2023-07-29T09:40:41;99855.56;;;23.30;55.49
71476;BME280;59286;59.274;17.974;2023-07-29T09:43:20;99856.31;;;23.30;56.52
71476;BME280;59286;59.274;17.974;2023-07-29T09:45:54;99855.47;;;23.37;52.17
71476;BME280;59286;59.274;17.974;2023-07-29T09:48:26;99886.94;;;23.63;56.74
71476;BME280;59286;59.274;17.974;2023-07-29T09:50:54;99830.94;;;23.45;53.88
71476;BME280;59286;59.274;17.974;2023-07-29T09:53:20;99852.09;;;23.70;57.12
71476;BME280;59286;59.274;17.974;2023-07-29T09:55:47;99842.53;;;23.69;56.62
71476;BME280;59286;59.274;17.974;2023-07-29T09:58:22;99841.13;;;23.57;52.87
71476;BME280;59286;59.274;17.974;2023-07-29T10:00:52;99876.56;;;23.98;55.95
71476;BME280;59286;59.274;17.974;2023-07-29T10:03:21;99866.72;;;23.92;53.34
71476;BME280;59286;59.274;17.974;2023-07-29T10:05:49;99877.28;;;24.06;54.45
71476;BME280;59286;59.274;17.974;2023-07-29T10:08:19;99848.34;;;23.94;56.07
71476;BME280;59286;59.274;17.974;2023-07-29T10:10:45;99885.66;;;24.08;55.37
71476;BME280;59286;59.274;17.974;2023-07-29T10:13:12;99868.50;;;24.06;55.10
71476;BME280;59286;59.274;17.974;2023-07-29T10:15:37;99867.44;;;23.96;54.20
71476;BME280;59286;59.274;17.974;2023-07-29T10:18:03;99867.50;;;23.92;54.74
71476;BME280;59286;59.274;17.974;2023-07-29T10:20:33;99833.16;;;23.84;55.69
71476;BME280;59286;59.274;17.974;2023-07-29T10:23:07;99850.41;;;24.13;52.86
71476;BME280;59286;59.274;17.974;2023-07-29T10:26:02;99844.16;;;24.23;52.92
71476;BME280;59286;59.274;17.974;2023-07-29T10:28:32;99857.00;;;24.35;55.31
71476;BME280;59286;59.274;17.974;2023-07-29T10:30:59;99857.78;;;24.32;54.38
71476;BME280;59286;59.274;17.974;2023-07-29T10:33:25;99837.19;;;24.29;52.49
71476;BME280;59286;59.274;17.974;2023-07-29T10:35:51;99852.44;;;24.32;51.76
71476;BME280;59286;59.274;17.974;2023-07-29T10:38:19;99857.34;;;24.11;52.41
71476;BME280;59286;59.274;17.974;2023-07-29T10:40:50;99854.41;;;23.98;53.16
71476;BME280;59286;59.274;17.974;2023-07-29T10:43:24;99871.09;;;24.13;51.43
71476;BME280;59286;59.274;17.974;2023-07-29T10:45:50;99842.28;;;23.90;52.69
71476;BME280;59286;59.274;17.974;2023-07-29T10:51:37;99868.09;;;24.37;51.69
71476;BME280;59286;59.274;17.974;2023-07-29T10:54:03;99869.22;;;24.36;51.19
71476;BME280;59286;59.274;17.974;2023-07-29T10:56:31;99867.66;;;24.39;51.07
71476;BME280;59286;59.274;17.974;2023-07-29T11:01:39;99860.28;;;24.20;50.70
71476;BME280;59286;59.274;17.974;2023-07-29T11:12:45;99876.66;;;24.25;51.51
71476;BME280;59286;59.274;17.974;2023-07-29T11:15:26;99855.75;;;24.13;50.29
71476;BME280;59286;59.274;17.974;2023-07-29T11:18:09;99860.56;;;23.95;50.62
71476;BME280;59286;59.274;17.974;2023-07-29T11:20:39;99868.13;;;24.00;52.21
71476;BME280;59286;59.274;17.974;2023-07-29T11:23:11;99822.38;;;23.61;51.88
71476;BME280;59286;59.274;17.974;2023-07-29T11:26:00;99871.63;;;23.97;49.77
71476;BME280;59286;59.274;17.974;2023-07-29T11:28:40;99838.41;;;23.91;51.55
71476;BME280;59286;59.274;17.974;2023-07-29T11:31:26;99841.22;;;24.14;50.47
71476;BME280;59286;59.274;17.974;2023-07-29T11:34:16;99875.59;;;24.19;49.07
71476;BME280;59286;59.274;17.974;2023-07-29T11:36:45;99843.13;;;24.14;50.41
71476;BME280;59286;59.274;17.974;2023-07-29T11:39:11;99818.25;;;24.13;48.58
71476;BME280;59286;59.274;17.974;2023-07-29T11:44:20;99837.59;;;24.28;47.85
71476;BME280;59286;59.274;17.974;2023-07-29T11:46:45;99821.34;;;24.12;47.42
71476;BME280;59286;59.274;17.974;2023-07-29T11:49:19;99846.47;;;24.21;46.79
71476;BME280;59286;59.274;17.974;2023-07-29T11:52:00;99830.50;;;24.14;47.01
71476;BME280;59286;59.274;17.974;2023-07-29T11:54:26;99868.41;;;24.39;46.80
71476;BME280;59286;59.274;17.974;2023-07-29T11:56:52;99815.25;;;24.11;49.41
71476;BME280;59286;59.274;17.974;2023-07-29T11:59:20;99836.25;;;24.39;47.11
71476;BME280;59286;59.274;17.974;2023-07-29T12:01:51;99872.69;;;24.63;47.37
71476;BME280;59286;59.274;17.974;2023-07-29T12:04:17;99827.78;;;24.44;46.30
71476;BME280;59286;59.274;17.974;2023-07-29T12:06:46;99852.38;;;24.62;48.27
71476;BME280;59286;59.274;17.974;2023-07-29T12:09:22;99842.50;;;24.59;48.71
71476;BME280;59286;59.274;17.974;2023-07-29T12:11:48;99841.53;;;24.69;47.56
71476;BME280;59286;59.274;17.974;2023-07-29T12:14:19;99852.50;;;24.82;44.99
71476;BME280;59286;59.274;17.974;2023-07-29T12:16:48;99837.91;;;24.83;44.66
71476;BME280;59286;59.274;17.974;2023-07-29T12:19:15;99862.13;;;25.03;45.71
71476;BME280;59286;59.274;17.974;2023-07-29T12:21:43;99845.66;;;24.77;46.36
71476;BME280;59286;59.274;17.974;2023-07-29T12:24:11;99872.41;;;24.81;44.90
71476;BME280;59286;59.274;17.974;2023-07-29T12:26:37;99846.56;;;24.67;45.58
71476;BME280;59286;59.274;17.974;2023-07-29T12:29:19;99849.09;;;24.51;44.99
71476;BME280;59286;59.274;17.974;2023-07-29T12:32:01;99839.16;;;24.52;46.55
71476;BME280;59286;59.274;17.974;2023-07-29T12:34:29;99876.56;;;24.85;45.98
71476;BME280;59286;59.274;17.974;2023-07-29T12:36:58;99851.97;;;24.64;44.74
71476;BME280;59286;59.274;17.974;2023-07-29T12:39:29;99876.41;;;24.69;45.07
71476;BME280;59286;59.274;17.974;2023-07-29T12:41:59;99835.53;;;24.39;45.30
71476;BME280;59286;59.274;17.974;2023-07-29T12:44:29;99837.91;;;24.33;43.49
71476;BME280;59286;59.274;17.974;2023-07-29T12:46:54;99840.00;;;24.45;44.92
71476;BME280;59286;59.274;17.974;2023-07-29T12:49:20;99836.34;;;24.59;47.12
71476;BME280;59286;59.274;17.974;2023-07-29T12:51:45;99837.97;;;24.53;45.08
71476;BME280;59286;59.274;17.974;2023-07-29T12:54:11;99868.69;;;24.75;46.23
71476;BME280;59286;59.274;17.974;2023-07-29T12:57:00;99872.00;;;24.82;46.15
71476;BME280;59286;59.274;17.974;2023-07-29T12:59:31;99857.69;;;24.92;45.56
71476;BME280;59286;59.274;17.974;2023-07-29T13:01:57;99843.81;;;24.74;44.97
71476;BME280;59286;59.274;17.974;2023-07-29T13:04:25;99860.56;;;24.78;45.48
71476;BME280;59286;59.274;17.974;2023-07-29T13:06:50;99868.81;;;24.91;45.79